Home > Products > Valid Products > TAF

000
FTUS42 TJSJ 301100
TAFJMZ
TAF
TJMZ 301137Z 3012/3112 VRB04KT P6SM FEW040
     FM301350 28009KT P6SM SCT030
     FM302050 09004KT P6SM FEW030=



000
FTUS42 TJSJ 301100
TAFIST
TAF
TIST 301137Z 3012/3112 09007KT P6SM SKC
     FM301250 13012KT P6SM SKC
     FM302350 09007KT P6SM SKC=



000
FTUS42 TJSJ 301100
TAFNCM
TAF
TNCM 301137Z 3012/3112 09007KT P6SM VCSH FEW020
     FM301300 12010KT P6SM VCSH SCT020=



000
FTUS42 TJSJ 301100
TAFISX
TAF
TISX 301137Z 3012/3112 04005KT P6SM FEW022
     FM301250 12013KT P6SM SCT030
     FM302150 07007KT P6SM SKC=



000
FTUS42 TJSJ 301100
TAFKPK
TAF
TKPK 301137Z 3012/3112 08010KT P6SM VCSH FEW020=



000
FTUS42 TJSJ 301100
TAFJBQ
TAF
TJBQ 301137Z 3012/3112 12006KT P6SM SKC
     FM301350 03006KT P6SM SCT040
     FM301650 06012KT P6SM VCTS BKN040CB
      TEMPO 3018/3021 6SM -TSRA BR BKN030CB
     FM302350 10006KT P6SM SCT040=



000
FTUS42 TJSJ 301100
TAFJPS
TAF
TJPS 301137Z 3012/3112 06005KT P6SM FEW020
     FM301450 14013KT P6SM FEW030
     FM302350 VRB04KT P6SM SKC=



000
FTUS42 TJSJ 301100
TAFJSJ
TAF
TJSJ 301137Z 3012/3112 00000KT P6SM FEW025
     FM301250 07012KT P6SM FEW030
     FM302350 VRB03KT P6SM SKC=



000
FTUS42 TJSJ 300500
TAFJPS
TAF
TJPS 300536Z 3006/3106 00000KT P6SM SKC
     FM301450 14013KT P6SM FEW030
     FM302350 VRB04KT P6SM SKC=



000
FTUS42 TJSJ 300500
TAFJSJ
TAF
TJSJ 300536Z 3006/3106 00000KT P6SM SKC
     FM301250 07012KT P6SM FEW030
     FM302350 VRB03KT P6SM SKC=



000
FTUS42 TJSJ 300500
TAFKPK
TAF
TKPK 300536Z 3006/3106 09012KT P6SM VCSH FEW020
      AMD NOT SKED TIL 301100=



000
FTUS42 TJSJ 300500
TAFJMZ
TAF
TJMZ 300536Z 3006/3106 05003KT P6SM SKC
     FM301350 28009KT P6SM SCT030
     FM302050 09004KT P6SM FEW030
      AMD NOT SKED TIL 301100=



000
FTUS42 TJSJ 300500
TAFNCM
TAF
TNCM 300536Z 3006/3106 08010KT P6SM VCSH FEW020
     FM301200 12010KT P6SM VCSH SCT020=



000
FTUS42 TJSJ 300500
TAFJBQ
TAF
TJBQ 300536Z 3006/3106 12006KT P6SM SKC
     FM301350 03006KT P6SM SCT040
     FM301650 06012KT P6SM VCTS BKN040CB PROB30 3018/3021 6SM -TSRA
      BKN030CB
     FM302350 10006KT P6SM SCT040
      AMD NOT SKED TIL 301100=



000
FTUS42 TJSJ 300500
TAFISX
TAF
TISX 300536Z 3006/3106 36003KT P6SM SKC
     FM301150 12013KT P6SM SCT030
     FM302150 07007KT P6SM SKC=



000
FTUS42 TJSJ 300500
TAFIST
TAF
TIST 300536Z 3006/3106 10007KT P6SM VCSH FEW025
     FM301250 13012KT P6SM SKC
     FM302350 09007KT P6SM SKC=



000
FTUS42 TJSJ 300100 CCA
TAFJPS
TAF COR
TJPS 300149Z 3000/3024 07005KT P6SM FEW030 SCT060
     FM300330 04002KT P6SM FEW030
     FM301500 15012KT P6SM SCT030
      AMD NOT SKED TIL 300300=



000
FTUS42 TJSJ 292300 RRA
TAFIST
TAF
TIST 292339Z 3000/3024 11009KT P6SM VCSH SCT025 SCT040
     FM300200 09005KT P6SM FEW022 SCT050
     FM300550 08005KT P6SM VCSH FEW022 SCT050 PROB30 3009/3012 -SHRA
      SCT022 BKN040
     FM301400 13012KT P6SM SCT030=



000
FTUS42 TJSJ 292300 RRA
TAFNCM
TAF
TNCM 292339Z 3000/3024 09008KT P6SM FEW018 SCT040
     FM300400 08007KT P6SM VCSH SCT018 SCT035 PROB30 3009/3012 -SHRA
      BKN018
     FM301400 12012KT P6SM SCT022=



000
FTUS42 TJSJ 292300 RRA
TAFJBQ
TAF
TJBQ 292339Z 3000/3024 09009KT P6SM SCT025 SCT080
     FM300300 12002KT P6SM FEW030
     FM301500 07015KT P6SM VCSH SCT025 SCT050
      AMD NOT SKED 3002/3011=



000
FTUS42 TJSJ 292300 RRA
TAFISX
TAF
TISX 292339Z 3000/3024 09010KT P6SM VCSH SCT025 SCT040
     FM300200 08005KT P6SM FEW022 SCT050
     FM300550 07005KT P6SM VCSH FEW022 SCT050 PROB30 3009/3012 -SHRA
      SCT022 BKN040
     FM301400 11012KT P6SM SCT030=



000
FTUS42 TJSJ 292300 RRA
TAFKPK
TAF
TKPK 292339Z 3000/3024 06009KT P6SM FEW018 SCT040
     FM300400 07007KT P6SM VCSH SCT018 SCT035 PROB30 3009/3012 -SHRA
      BKN018
     FM301400 09012KT P6SM SCT022
      AMD NOT SKED 3002/3011=



000
FTUS42 TJSJ 292300 RRA
TAFJPS
TAF
TJPS 292339Z 3000/3024 14012KT P6SM FEW030 SCT060
     FM300330 04002KT P6SM FEW025
     FM301500 15012KT P6SM SCT030
      AMD NOT SKED TIL 300300=



000
FTUS42 TJSJ 292300 RRA
TAFJMZ
TAF
TJMZ 292339Z 3000/3024 09005KT P6SM FEW030 SCT060
     FM300600 05002KT P6SM SKC
     FM301500 29009KT P6SM VCSH SCT025 SCT050
      AMD NOT SKED TIL 301100=



000
FTUS42 TJSJ 292300 RRA
TAFJSJ
TAF
TJSJ 292339Z 3000/3024 09005KT P6SM FEW028 SCT060 SCT100
     FM300600 12003KT P6SM VCSH FEW022 SCT040 PROB30 3009/3012 -SHRA
      SCT025 BKN040
     FM301500 07014KT P6SM FEW030 SCT060=



000
FTUS42 TJSJ 291700
TAFJBQ
TAF
TJBQ 291735Z 2918/3018 04010KT P6SM VCTS SCT040CB SCT045 SCT060
      TEMPO 2918/2920 4SM TSRA BKN030CB
     FM292330 10005KT P6SM FEW025
     FM301500 07010KT P6SM VCSH SCT040 SCT250=



000
FTUS42 TJSJ 291700
TAFISX
TAF
TISX 291735Z 2918/3018 12010KT P6SM FEW020 SCT030
     FM292300 06008KT P6SM FEW025
     FM300900 07004KT P6SM SCT250
     FM301300 12010KT P6SM SCT250=



000
FTUS42 TJSJ 291700
TAFKPK
TAF
TKPK 291735Z 2918/3018 08012KT P6SM FEW024
     FM300000 07007KT P6SM SCT250
     FM301500 08012KT P6SM SCT250=



000
FTUS42 TJSJ 291700
TAFJMZ
TAF
TJMZ 291735Z 2918/3018 28006KT P6SM VCTS BKN040CB
     FM292330 VRB05KT P6SM FEW060
     FM301500 27006KT P6SM VCSH SCT040 SCT250
      AMD NOT SKED 2923/3016=



000
FTUS42 TJSJ 291700
TAFIST
TAF
TIST 291735Z 2918/3018 15011KT P6SM SKC
     FM292300 10008KT P6SM FEW025
     FM300300 09004KT P6SM SKC
     FM301200 11010KT P6SM SKC=



000
FTUS42 TJSJ 291700
TAFJPS
TAF
TJPS 291735Z 2918/3018 14012KT P6SM FEW030 SCT060
     FM292330 05005KT P6SM FEW060
     FM301500 15009KT P6SM BKN250
      AMD NOT SKED TIL 300300=



000
FTUS42 TJSJ 291700
TAFJSJ
TAF
TJSJ 291735Z 2918/3018 04006KT P6SM -RA VCSH SCT040 SCT070
     FM292330 10005KT P6SM FEW025
     FM301500 07012KT P6SM SCT250=



000
FTUS42 TJSJ 291700
TAFNCM
TAF
TNCM 291735Z 2918/3018 14007KT P6SM SCT018
      TEMPO 3012/3014 -SHRA SCT020
     FM301400 11012KT P6SM SCT022=



000
FTUS42 TJSJ 291100
TAFJBQ
TAF
TJBQ 291130Z 2912/3012 10005KT P6SM FEW025 SCT040
     FM291330 08013KT P6SM FEW025 SCT050
     FM291630 08015G25KT P6SM VCTS SCT025CB BKN050
      TEMPO 2917/2920 4SM TSRA BKN030CB
     FM292330 10005KT P6SM FEW025=



000
FTUS42 TJSJ 291100
TAFKPK
TAF
TKPK 291130Z 2912/3012 09010KT P6SM FEW020
     FM291300 08012KT P6SM SCT022=



000
FTUS42 TJSJ 291100
TAFIST
TAF
TIST 291130Z 2912/3012 10008KT P6SM VCSH FEW025 SCT040
     FM291300 14013KT P6SM SCT025
     FM292300 10008KT P6SM FEW025=



000
FTUS42 TJSJ 291100
TAFJPS
TAF
TJPS 291130Z 2912/3012 05005KT P6SM FEW020
     FM291330 14012KT P6SM FEW030 SCT060
     FM292330 05005KT P6SM FEW060
      AMD NOT SKED 2912/3003=



000
FTUS42 TJSJ 291100
TAFJSJ
TAF
TJSJ 291130Z 2912/3012 10005KT P6SM VCSH FEW025 SCT040
     FM291330 07012G18KT P6SM FEW025 FEW050
     FM291630 09012G20KT P6SM VCSH SCT025 SCT050
     FM292330 10005KT P6SM FEW025=



000
FTUS42 TJSJ 291100
TAFJMZ
TAF
TJMZ 291130Z 2912/3012 VRB05KT P6SM FEW060
     FM291630 25010KT P6SM VCTS SCT025CB BKN040
     FM292330 VRB05KT P6SM FEW060=



000
FTUS42 TJSJ 291100
TAFNCM
TAF
TNCM 291130Z 2912/3012 09010KT P6SM FEW020
      TEMPO 2912/2914 -SHRA SCT020
     FM291400 11012KT P6SM SCT022=



000
FTUS42 TJSJ 291100
TAFISX
TAF
TISX 291130Z 2912/3012 09008KT P6SM FEW025 SCT040
     FM291300 11013KT P6SM SCT025
     FM292300 06008KT P6SM FEW025=



000
FTUS42 TJSJ 290500 RRA
TAFJMZ
TAF
TJMZ 290541Z 2906/3006 VRB05KT P6SM FEW060
     FM291630 25010KT P6SM VCTS SCT025CB BKN040
     FM292330 VRB05KT P6SM FEW060
      AMD NOT SKED TIL 291100=



000
FTUS42 TJSJ 290500 RRA
TAFJSJ
TAF
TJSJ 290541Z 2906/3006 10005KT P6SM VCSH FEW025 SCT040
     FM291330 07012G18KT P6SM SCT025 SCT050
     FM292330 10005KT P6SM FEW025=



000
FTUS42 TJSJ 290500 RRA
TAFIST
TAF
TIST 290541Z 2906/3006 10008KT P6SM VCSH FEW025 SCT040
     FM291300 14013KT P6SM SCT025
     FM292300 10008KT P6SM FEW025=



000
FTUS42 TJSJ 290500 RRA
TAFJPS
TAF
TJPS 290541Z 2906/3006 05005KT P6SM FEW060
     FM291330 14012KT P6SM FEW030 SCT060
     FM292330 05005KT P6SM FEW060
      AMD NOT SKED 2912/3003=



000
FTUS42 TJSJ 290500 RRA
TAFJBQ
TAF
TJBQ 290541Z 2906/3006 10005KT P6SM FEW025 SCT040
     FM291330 08013KT P6SM FEW025 SCT050
     FM291630 08015G25KT P6SM VCTS SCT025CB BKN050
     FM292330 10005KT P6SM FEW025
      AMD NOT SKED TIL 291100=



000
FTUS42 TJSJ 290500 RRA
TAFKPK
TAF
TKPK 290541Z 2906/3006 08010KT P6SM FEW020
     FM291300 07012KT P6SM SCT022
      AMD NOT SKED TIL 291100=



000
FTUS42 TJSJ 290500 RRA
TAFISX
TAF
TISX 290541Z 2906/3006 04008KT P6SM FEW025 SCT040
     FM291300 11013KT P6SM SCT025
     FM292300 06008KT P6SM FEW025=



000
FTUS42 TJSJ 290500 RRA
TAFNCM
TAF
TNCM 290541Z 2906/3006 09010KT P6SM FEW020
      TEMPO 2906/2908 4SM SHRA BKN015
     FM291300 11012KT P6SM SCT022=



000
FTUS42 TJSJ 290100 AAA
TAFIST
TAF AMD
TIST 290155Z 2902/2924 12008KT P6SM VCSH FEW025
     FM291300 14012KT P6SM SCT025
     FM292300 10005KT P6SM FEW030=



000
FTUS42 TJSJ 290100 AAA
TAFJSJ
TAF AMD
TJSJ 290153Z 2902/2924 10007KT P6SM VCSH FEW025
     FM291300 07012KT P6SM SCT025
     FM292200 11006KT P6SM FEW030=



000
FTUS42 TJSJ 282300 RRA
TAFJBQ
TAF
TJBQ 282345Z 2900/2924 11006KT P6SM FEW030
     FM291200 09012KT P6SM SCT025
     FM291800 07015KT P6SM VCTS SCT025CB BKN040
     FM292300 11005KT P6SM SCT025
      AMD NOT SKED 2902/2911=



000
FTUS42 TJSJ 282300 RRA
TAFIST
TAF
TIST 282345Z 2900/2924 12008KT P6SM FEW025
     FM291300 14012KT P6SM SCT025
     FM292300 10005KT P6SM FEW030=



000
FTUS42 TJSJ 282300 RRA
TAFISX
TAF
TISX 282345Z 2900/2924 07008KT P6SM FEW025
     FM291300 11013KT P6SM SCT025
     FM292300 08007KT P6SM FEW025=



000
FTUS42 TJSJ 282300 RRA
TAFKPK
TAF
TKPK 282345Z 2900/2924 07008KT P6SM FEW020
     FM291300 09013KT P6SM SCT022
     FM292300 06007KT P6SM FEW022
      AMD NOT SKED 2902/2911=



000
FTUS42 TJSJ 282300 RRA
TAFNCM
TAF
TNCM 282345Z 2900/2924 09008KT P6SM SCT022
     FM291300 12013KT P6SM SCT020
     FM292300 10007KT P6SM FEW022=



000
FTUS42 TJSJ 282300 RRA
TAFJSJ
TAF
TJSJ 282345Z 2900/2924 10007KT P6SM FEW030
     FM291300 07012KT P6SM SCT025
     FM292200 11006KT P6SM FEW030=



000
FTUS42 TJSJ 282300 RRA
TAFJPS
TAF
TJPS 282345Z 2900/2924 05005KT P6SM FEW030
     FM291500 14012KT P6SM FEW030 SCT050
     FM292330 09007KT P6SM FEW030
      AMD NOT SKED TIL 290300=



000
FTUS42 TJSJ 282300 RRA
TAFJMZ
TAF
TJMZ 282345Z 2900/2924 07005KT P6SM FEW040
     FM291530 27010KT P6SM VCSH SCT025 BKN040
     FM292200 06006KT P6SM SCT025 SCT040
      AMD NOT SKED TIL 291100=



000
FTUS42 TJSJ 281900 AAA
TAFJPS
TAF AMD
TJPS 281923Z 2819/2918 13018KT P6SM VCTS SCT030CB SCT050
      TEMPO 2819/2821 5SM TSRA SCT020CB BKN050
     FM282330 05005KT P6SM FEW030
     FM291500 13012KT P6SM FEW030 SCT060
      AMD NOT SKED TIL 290300=



000
FTUS42 TJSJ 281700
TAFISX
TAF
TISX 281739Z 2818/2918 11013KT P6SM VCSH SCT025
     FM282200 06008KT P6SM FEW025
     FM291300 11013KT P6SM SCT025=



000
FTUS42 TJSJ 281700
TAFIST
TAF
TIST 281739Z 2818/2918 13013KT P6SM VCSH SCT025
     FM282200 11010KT P6SM FEW025
     FM291300 13012KT P6SM SCT025=



000
FTUS42 TJSJ 281700
TAFJSJ
TAF
TJSJ 281739Z 2818/2918 07015G20KT P6SM FEW030 SCT050
     FM282330 11005KT P6SM FEW025
     FM291300 08012KT P6SM SCT025=



000
FTUS42 TJSJ 281700
TAFJMZ
TAF
TJMZ 281739Z 2818/2918 06010KT P6SM VCTS SCT025CB BKN040
      TEMPO 2818/2822 5SM SHRA BKN030
     FM282330 VRB05KT P6SM FEW025
     FM291530 27010KT P6SM SCT025 BKN040=



000
FTUS42 TJSJ 281700
TAFKPK
TAF
TKPK 281739Z 2818/2918 07012KT P6SM FEW020
     FM282300 07008KT P6SM SCT022
      AMD NOT SKED 2902/2911=



000
FTUS42 TJSJ 281700
TAFJBQ
TAF
TJBQ 281739Z 2818/2918 06015G20KT P6SM FEW025 FEW050
     FM282330 11005KT P6SM SKC
     FM291400 08013KT P6SM SCT025
      AMD NOT SKED 2902/2911=



000
FTUS42 TJSJ 281700
TAFJPS
TAF
TJPS 281739Z 2818/2918 13018KT P6SM VCTS SCT030CB SCT050
     FM282330 05005KT P6SM FEW030
     FM291500 13012KT P6SM FEW030 SCT060
      AMD NOT SKED TIL 290300=



000
FTUS42 TJSJ 281700
TAFNCM
TAF
TNCM 281739Z 2818/2918 08012KT P6SM FEW020
     FM282300 09008KT P6SM SCT022=



000
FTUS42 TJSJ 281100 RRA
TAFIST
TAF
TIST 281145Z 2812/2912 11010KT P6SM FEW025 SCT040
     FM281300 13013KT P6SM SCT025
     FM282200 11010KT P6SM FEW025=



000
FTUS42 TJSJ 281100 RRA
TAFJPS
TAF
TJPS 281145Z 2812/2912 05005KT P6SM FEW030
     FM281330 15010KT P6SM FEW030 FEW050
     FM281630 15010KT P6SM VCTS SCT030CB SCT050
     FM282330 05005KT P6SM FEW030=



000
FTUS42 TJSJ 281100 RRA
TAFNCM
TAF
TNCM 281145Z 2812/2912 09005KT P6SM FEW020
     FM281300 08012KT P6SM SCT022=



000
FTUS42 TJSJ 281100 RRA
TAFJSJ
TAF
TJSJ 281145Z 2812/2912 09005KT P6SM FEW025 SCT040
     FM281330 07015G20KT P6SM FEW030 SCT050
     FM282330 11005KT P6SM FEW025=



000
FTUS42 TJSJ 281100 RRA
TAFJMZ
TAF
TJMZ 281145Z 2812/2912 VRB05KT P6SM FEW025
     FM281630 26010KT P6SM VCTS SCT025CB BKN040
      TEMPO 2817/2820 5SM SHRA BKN030
     FM282330 VRB05KT P6SM FEW025
      AMD NOT SKED TIL 281600=



000
FTUS42 TJSJ 281100 RRA
TAFJBQ
TAF
TJBQ 281145Z 2812/2912 11005KT P6SM FEW025
     FM281330 08015G20KT P6SM FEW025 FEW050
     FM282330 11005KT P6SM SKC=



000
FTUS42 TJSJ 281100 RRA
TAFISX
TAF
TISX 281145Z 2812/2912 05008KT P6SM FEW025
     FM281300 11013KT P6SM SCT025
     FM282200 06008KT P6SM FEW025=



000
FTUS42 TJSJ 281100 RRA
TAFKPK
TAF
TKPK 281145Z 2812/2912 07008KT P6SM FEW020
     FM281300 07012KT P6SM SCT022=



000
FTUS42 TJSJ 280500
TAFKPK
TAF
TKPK 280539Z 2806/2906 07008KT P6SM FEW020
     FM281300 07012KT P6SM SCT022
      AMD NOT SKED TIL 281100=



000
FTUS42 TJSJ 280500
TAFIST
TAF
TIST 280539Z 2806/2906 11010KT P6SM FEW025
     FM281300 13013KT P6SM SCT025
     FM282200 11010KT P6SM FEW025=



000
FTUS42 TJSJ 280500
TAFJMZ
TAF
TJMZ 280539Z 2806/2906 VRB05KT P6SM FEW025
     FM281630 26010KT P6SM VCTS SCT025CB BKN040
     FM282330 VRB05KT P6SM FEW025
      AMD NOT SKED TIL 281600=



000
FTUS42 TJSJ 280500
TAFISX
TAF
TISX 280539Z 2806/2906 06008KT P6SM FEW025
     FM281300 11013KT P6SM SCT025
     FM282200 06008KT P6SM FEW025=



000
FTUS42 TJSJ 280500
TAFJPS
TAF
TJPS 280539Z 2806/2906 00000KT P6SM FEW030
     FM281330 15010KT P6SM FEW030 FEW050
     FM281630 15010KT P6SM VCTS SCT030CB SCT050
     FM282330 05005KT P6SM FEW030
      AMD NOT SKED 2812/2903=



000
FTUS42 TJSJ 280500
TAFJSJ
TAF
TJSJ 280539Z 2806/2906 09005KT P6SM FEW025
     FM281330 07015G20KT P6SM FEW030 FEW050
     FM282330 11005KT P6SM FEW025=



000
FTUS42 TJSJ 280500
TAFJBQ
TAF
TJBQ 280539Z 2806/2906 11005KT P6SM SKC
     FM281330 08015G20KT P6SM FEW025 FEW050
     FM282330 11005KT P6SM SKC
      AMD NOT SKED TIL 281100=



000
FTUS42 TJSJ 280500
TAFNCM
TAF
TNCM 280539Z 2806/2906 09005KT P6SM FEW020
     FM281300 08012KT P6SM SCT022=



000
FTUS42 TJSJ 272300 RRA
TAFKPK
TAF
TKPK 272346Z 2800/2824 05012KT P6SM FEW020
     FM281400 08012KT P6SM SCT019
     FM282300 06008KT P6SM FEW022
      AMD NOT SKED 2802/2811=



000
FTUS42 TJSJ 272300 RRA
TAFJPS
TAF
TJPS 272346Z 2800/2824 05004KT P6SM FEW030 SCT050
     FM281330 15012KT P6SM FEW030
     FM282330 07007KT P6SM FEW030 SCT050
      AMD NOT SKED TIL 280300=



000
FTUS42 TJSJ 272300 RRA
TAFNCM
TAF
TNCM 272346Z 2800/2824 09010KT P6SM FEW022
     FM281400 10012KT P6SM SCT022
     FM282300 08008KT P6SM FEW022=



000
FTUS42 TJSJ 272300 RRA
TAFIST
TAF
TIST 272346Z 2800/2824 08010KT P6SM VCSH FEW025
     FM281400 13012KT P6SM SCT030
     FM282300 09008KT P6SM FEW025=



000
FTUS42 TJSJ 272300 RRA
TAFJMZ
TAF
TJMZ 272346Z 2800/2824 06006KT P6SM FEW030
     FM281430 25010KT P6SM SCT030
     FM282200 06006KT P6SM SCT025 SCT040
      AMD NOT SKED TIL 281600=



000
FTUS42 TJSJ 272300 RRA
TAFISX
TAF
TISX 272346Z 2800/2824 06006KT P6SM FEW022
     FM281200 12013KT P6SM FEW030
     FM282300 06006KT P6SM FEW025=



000
FTUS42 TJSJ 272300 RRA
TAFJBQ
TAF
TJBQ 272346Z 2800/2824 10012KT P6SM SCT025
     FM281330 07015KT P6SM FEW030
     FM282300 09008KT P6SM SCT025
      AMD NOT SKED 2802/2811=



000
FTUS42 TJSJ 272300 RRA
TAFJSJ
TAF
TJSJ 272346Z 2800/2824 07012KT P6SM VCSH SCT030
     FM281330 06014KT P6SM FEW025
     FM282200 10006KT P6SM SCT030=



000
FTUS42 TJSJ 271700
TAFJSJ
TAF
TJSJ 271734Z 2718/2818 06014KT P6SM FEW040
     FM272300 09006KT P6SM FEW025
     FM281330 06014KT P6SM FEW035=



000
FTUS42 TJSJ 271700
TAFJMZ
TAF
TJMZ 271734Z 2718/2818 27010KT P6SM VCTS BKN040CB
     FM272300 06006KT P6SM FEW030
     FM281430 25010KT P6SM SCT035
      AMD NOT SKED=



000
FTUS42 TJSJ 271700
TAFNCM
TAF
TNCM 271734Z 2718/2818 09010KT P6SM VCSH SCT025 BKN040
      TEMPO 2718/2720 BKN022=



000
FTUS42 TJSJ 271700
TAFKPK
TAF
TKPK 271734Z 2718/2818 07012KT P6SM SCT022
      AMD NOT SKED 2802/2811=



000
FTUS42 TJSJ 271700
TAFJPS
TAF
TJPS 271734Z 2718/2818 14012KT P6SM FEW030
     FM280000 05004KT P6SM FEW030
     FM281330 15012KT P6SM FEW030
      AMD NOT SKED TIL 280300=



000
FTUS42 TJSJ 271700
TAFISX
TAF
TISX 271734Z 2718/2818 12014KT P6SM VCSH SCT030 BKN045
     FM272300 05006KT P6SM FEW025
     FM281200 12013KT P6SM FEW030=



000
FTUS42 TJSJ 271700
TAFJBQ
TAF
TJBQ 271734Z 2718/2818 07015KT P6SM VCSH FEW030
     FM272300 09008KT P6SM SCT025
     FM281330 07015KT P6SM FEW030
      AMD NOT SKED 2802/2811=



000
FTUS42 TJSJ 271700
TAFIST
TAF
TIST 271734Z 2718/2818 14012KT P6SM VCSH SCT030 BKN045
     FM272300 09008KT P6SM FEW025
     FM281400 13012KT P6SM SCT030=



    US Dept of Commerce
    National Oceanic and Atmospheric Administration
    National Weather Service
    1325 East West Highway
    Silver Spring, MD 20910
    Page Author: NWS Internet Services Team
Disclaimer
Information Quality
Credits
Glossary
Privacy Policy
Freedom of Information Act (FOIA)
About Us
Career Opportunities